NO-0060 weather

Overhalla Airstrip
Overhalla, Nord-Trøndelag, Norway

Public forecast

Using degrees Celsius for public forecast. Weather courtesy of forecast.io.

METAR (pilot weather report)

Report is more than 6 hours old.

Closest report is Namsos Høknesøra Airport, 11.1 nm (20.6 km) WSW. Retrieved 2019/07/16 19:50 UTC (8 hours ago):

ENNM 161950Z 26004KT 9999 FEW023 SCT055 12/08 Q1016

TAF (pilot weather forecast)

Forecast is more than 12 hours old.

Closest forecast is Trondheim Airport Værnes, 70.1 nm (129.9 km) SSW. Retrieved 2019/07/16 00:57 UTC (1 day ago):

TAF ENVA 162300Z 1700/1724 13005KT 9999 FEW010 SCT035 BECMG 1708/1710 27010KT BECMG 1718/1720 11005KT